sensor_id;sensor_type;location;lat;lon;timestamp;temperature;humidity
292;DHT22;23311;48.776;9.162;2023-09-07T00:02:11;16.70;95.50
292;DHT22;23311;48.776;9.162;2023-09-07T00:04:39;16.60;95.50
292;DHT22;23311;48.776;9.162;2023-09-07T00:07:09;16.60;95.50
292;DHT22;23311;48.776;9.162;2023-09-07T00:09:37;16.40;95.50
292;DHT22;23311;48.776;9.162;2023-09-07T00:12:06;16.30;95.50
292;DHT22;23311;48.776;9.162;2023-09-07T00:14:34;16.20;95.50
292;DHT22;23311;48.776;9.162;2023-09-07T00:17:02;16.20;95.50
292;DHT22;23311;48.776;9.162;2023-09-07T00:19:31;16.10;95.50
292;DHT22;23311;48.776;9.162;2023-09-07T00:22:03;16.10;95.50
292;DHT22;23311;48.776;9.162;2023-09-07T00:24:34;16.20;95.50
292;DHT22;23311;48.776;9.162;2023-09-07T00:27:02;16.20;95.50
292;DHT22;23311;48.776;9.162;2023-09-07T00:29:32;16.20;95.50
292;DHT22;23311;48.776;9.162;2023-09-07T00:32:00;16.10;95.50
292;DHT22;23311;48.776;9.162;2023-09-07T00:34:29;16.10;95.50
292;DHT22;23311;48.776;9.162;2023-09-07T00:36:57;16.00;95.50
292;DHT22;23311;48.776;9.162;2023-09-07T00:39:25;16.00;95.50
292;DHT22;23311;48.776;9.162;2023-09-07T00:41:55;16.00;95.50
292;DHT22;23311;48.776;9.162;2023-09-07T00:44:23;16.00;95.50
292;DHT22;23311;48.776;9.162;2023-09-07T00:46:51;16.00;95.50
292;DHT22;23311;48.776;9.162;2023-09-07T00:49:19;16.00;95.50
292;DHT22;23311;48.776;9.162;2023-09-07T00:51:48;15.90;95.50
292;DHT22;23311;48.776;9.162;2023-09-07T00:54:16;15.90;95.50
292;DHT22;23311;48.776;9.162;2023-09-07T00:56:45;15.80;95.50
292;DHT22;23311;48.776;9.162;2023-09-07T00:59:14;15.80;95.50
292;DHT22;23311;48.776;9.162;2023-09-07T01:01:42;15.80;95.50
292;DHT22;23311;48.776;9.162;2023-09-07T01:04:11;15.70;95.50
292;DHT22;23311;48.776;9.162;2023-09-07T01:06:42;15.70;95.50
292;DHT22;23311;48.776;9.162;2023-09-07T01:09:14;15.70;95.50
292;DHT22;23311;48.776;9.162;2023-09-07T01:11:45;15.70;95.50
292;DHT22;23311;48.776;9.162;2023-09-07T01:14:14;15.60;95.50
292;DHT22;23311;48.776;9.162;2023-09-07T01:16:43;15.60;95.50
292;DHT22;23311;48.776;9.162;2023-09-07T01:19:11;15.60;95.50
292;DHT22;23311;48.776;9.162;2023-09-07T01:21:41;15.60;95.50
292;DHT22;23311;48.776;9.162;2023-09-07T01:24:11;15.60;95.50
292;DHT22;23311;48.776;9.162;2023-09-07T01:26:39;15.60;95.50
292;DHT22;23311;48.776;9.162;2023-09-07T01:29:09;15.60;95.50
292;DHT22;23311;48.776;9.162;2023-09-07T01:31:38;15.60;95.50
292;DHT22;23311;48.776;9.162;2023-09-07T01:34:07;15.50;95.50
292;DHT22;23311;48.776;9.162;2023-09-07T01:36:35;15.60;95.50
292;DHT22;23311;48.776;9.162;2023-09-07T01:39:05;15.70;95.50
292;DHT22;23311;48.776;9.162;2023-09-07T01:41:33;15.60;95.50
292;DHT22;23311;48.776;9.162;2023-09-07T01:44:02;15.40;95.50
292;DHT22;23311;48.776;9.162;2023-09-07T01:46:30;15.30;95.50
292;DHT22;23311;48.776;9.162;2023-09-07T01:48:58;15.20;95.50
292;DHT22;23311;48.776;9.162;2023-09-07T01:51:26;15.20;95.50
292;DHT22;23311;48.776;9.162;2023-09-07T01:53:55;15.20;95.50
292;DHT22;23311;48.776;9.162;2023-09-07T01:56:24;15.10;95.50
292;DHT22;23311;48.776;9.162;2023-09-07T01:58:53;15.10;95.50
292;DHT22;23311;48.776;9.162;2023-09-07T02:01:22;15.10;95.50
292;DHT22;23311;48.776;9.162;2023-09-07T02:03:50;15.00;95.50
292;DHT22;23311;48.776;9.162;2023-09-07T02:06:19;15.00;95.50
292;DHT22;23311;48.776;9.162;2023-09-07T02:08:47;15.00;95.50
292;DHT22;23311;48.776;9.162;2023-09-07T02:11:15;15.60;95.50
292;DHT22;23311;48.776;9.162;2023-09-07T02:13:47;15.70;95.50
292;DHT22;23311;48.776;9.162;2023-09-07T02:16:15;15.70;95.50
292;DHT22;23311;48.776;9.162;2023-09-07T02:18:48;15.60;95.50
292;DHT22;23311;48.776;9.162;2023-09-07T02:21:17;15.50;95.50
292;DHT22;23311;48.776;9.162;2023-09-07T02:23:45;15.30;95.50
292;DHT22;23311;48.776;9.162;2023-09-07T02:26:13;15.30;95.50
292;DHT22;23311;48.776;9.162;2023-09-07T02:28:41;15.10;95.50
292;DHT22;23311;48.776;9.162;2023-09-07T02:31:11;15.10;95.50
292;DHT22;23311;48.776;9.162;2023-09-07T02:33:40;15.10;95.50
292;DHT22;23311;48.776;9.162;2023-09-07T02:36:08;15.00;95.50
292;DHT22;23311;48.776;9.162;2023-09-07T02:38:36;14.90;95.50
292;DHT22;23311;48.776;9.162;2023-09-07T02:41:04;14.90;95.50
292;DHT22;23311;48.776;9.162;2023-09-07T02:43:32;14.80;95.50
292;DHT22;23311;48.776;9.162;2023-09-07T02:46:00;15.00;95.50
292;DHT22;23311;48.776;9.162;2023-09-07T02:48:30;15.00;95.50
292;DHT22;23311;48.776;9.162;2023-09-07T02:50:59;14.90;95.50
292;DHT22;23311;48.776;9.162;2023-09-07T02:53:28;14.80;95.50
292;DHT22;23311;48.776;9.162;2023-09-07T02:55:56;14.70;95.50
292;DHT22;23311;48.776;9.162;2023-09-07T02:58:25;14.70;95.50
292;DHT22;23311;48.776;9.162;2023-09-07T03:00:53;14.80;95.50
292;DHT22;23311;48.776;9.162;2023-09-07T03:03:22;14.80;95.50
292;DHT22;23311;48.776;9.162;2023-09-07T03:05:52;15.00;95.50
292;DHT22;23311;48.776;9.162;2023-09-07T03:08:20;14.80;95.50
292;DHT22;23311;48.776;9.162;2023-09-07T03:10:48;14.70;95.50
292;DHT22;23311;48.776;9.162;2023-09-07T03:13:16;14.60;95.50
292;DHT22;23311;48.776;9.162;2023-09-07T03:15:44;14.60;95.50
292;DHT22;23311;48.776;9.162;2023-09-07T03:18:12;14.60;95.50
292;DHT22;23311;48.776;9.162;2023-09-07T03:20:40;14.60;95.50
292;DHT22;23311;48.776;9.162;2023-09-07T03:23:10;14.60;95.50
292;DHT22;23311;48.776;9.162;2023-09-07T03:25:38;14.50;95.50
292;DHT22;23311;48.776;9.162;2023-09-07T03:28:06;14.40;95.50
292;DHT22;23311;48.776;9.162;2023-09-07T03:30:34;14.40;95.50
292;DHT22;23311;48.776;9.162;2023-09-07T03:33:03;14.30;95.50
292;DHT22;23311;48.776;9.162;2023-09-07T03:35:31;14.40;95.50
292;DHT22;23311;48.776;9.162;2023-09-07T03:37:59;14.50;95.50
292;DHT22;23311;48.776;9.162;2023-09-07T03:40:29;14.40;95.50
292;DHT22;23311;48.776;9.162;2023-09-07T03:42:57;14.40;95.50
292;DHT22;23311;48.776;9.162;2023-09-07T03:45:25;14.40;95.50
292;DHT22;23311;48.776;9.162;2023-09-07T03:47:53;14.40;95.50
292;DHT22;23311;48.776;9.162;2023-09-07T03:50:21;14.40;95.50
292;DHT22;23311;48.776;9.162;2023-09-07T03:52:49;14.50;95.50
292;DHT22;23311;48.776;9.162;2023-09-07T03:55:18;14.50;95.50
292;DHT22;23311;48.776;9.162;2023-09-07T03:57:50;14.40;95.50
292;DHT22;23311;48.776;9.162;2023-09-07T04:00:18;14.30;95.50
292;DHT22;23311;48.776;9.162;2023-09-07T04:02:46;14.30;95.50
292;DHT22;23311;48.776;9.162;2023-09-07T04:05:15;14.30;95.50
292;DHT22;23311;48.776;9.162;2023-09-07T04:07:43;14.20;95.50
292;DHT22;23311;48.776;9.162;2023-09-07T04:10:12;14.20;95.50
292;DHT22;23311;48.776;9.162;2023-09-07T04:12:40;14.10;95.50
292;DHT22;23311;48.776;9.162;2023-09-07T04:15:10;14.10;95.50
292;DHT22;23311;48.776;9.162;2023-09-07T04:17:39;14.00;95.50
292;DHT22;23311;48.776;9.162;2023-09-07T04:20:09;14.10;95.50
292;DHT22;23311;48.776;9.162;2023-09-07T04:22:39;14.20;95.50
292;DHT22;23311;48.776;9.162;2023-09-07T04:25:07;14.20;95.50
292;DHT22;23311;48.776;9.162;2023-09-07T04:27:35;14.10;95.50
292;DHT22;23311;48.776;9.162;2023-09-07T04:30:06;14.00;95.50
292;DHT22;23311;48.776;9.162;2023-09-07T04:32:35;14.10;95.50
292;DHT22;23311;48.776;9.162;2023-09-07T04:35:04;14.10;95.50
292;DHT22;23311;48.776;9.162;2023-09-07T04:37:33;14.10;95.50
292;DHT22;23311;48.776;9.162;2023-09-07T04:40:01;14.20;95.50
292;DHT22;23311;48.776;9.162;2023-09-07T04:42:29;14.20;95.50
292;DHT22;23311;48.776;9.162;2023-09-07T04:44:57;14.30;95.50
292;DHT22;23311;48.776;9.162;2023-09-07T04:47:25;14.20;95.50
292;DHT22;23311;48.776;9.162;2023-09-07T04:49:55;14.20;95.50
292;DHT22;23311;48.776;9.162;2023-09-07T04:52:23;14.20;95.50
292;DHT22;23311;48.776;9.162;2023-09-07T04:54:52;14.20;95.50
292;DHT22;23311;48.776;9.162;2023-09-07T04:57:20;14.20;95.50
292;DHT22;23311;48.776;9.162;2023-09-07T04:59:48;14.30;95.50
292;DHT22;23311;48.776;9.162;2023-09-07T05:02:16;14.30;95.50
292;DHT22;23311;48.776;9.162;2023-09-07T05:04:44;14.40;95.50
292;DHT22;23311;48.776;9.162;2023-09-07T05:07:14;14.30;95.50
292;DHT22;23311;48.776;9.162;2023-09-07T05:09:42;14.30;95.50
292;DHT22;23311;48.776;9.162;2023-09-07T05:12:10;14.30;95.50
292;DHT22;23311;48.776;9.162;2023-09-07T05:14:38;14.30;95.50
292;DHT22;23311;48.776;9.162;2023-09-07T05:17:06;14.30;95.50
292;DHT22;23311;48.776;9.162;2023-09-07T05:19:34;14.40;95.50
292;DHT22;23311;48.776;9.162;2023-09-07T05:22:03;14.40;95.50
292;DHT22;23311;48.776;9.162;2023-09-07T05:24:32;14.40;95.50
292;DHT22;23311;48.776;9.162;2023-09-07T05:27:00;14.40;95.50
292;DHT22;23311;48.776;9.162;2023-09-07T05:29:30;14.50;95.50
292;DHT22;23311;48.776;9.162;2023-09-07T05:31:58;14.60;95.50
292;DHT22;23311;48.776;9.162;2023-09-07T05:34:29;14.80;95.50
292;DHT22;23311;48.776;9.162;2023-09-07T05:36:57;14.90;95.50
292;DHT22;23311;48.776;9.162;2023-09-07T05:39:25;14.90;95.50
292;DHT22;23311;48.776;9.162;2023-09-07T05:41:55;14.80;95.50
292;DHT22;23311;48.776;9.162;2023-09-07T05:44:23;14.80;95.50
292;DHT22;23311;48.776;9.162;2023-09-07T05:46:51;14.80;95.50
292;DHT22;23311;48.776;9.162;2023-09-07T05:49:19;14.90;95.50
292;DHT22;23311;48.776;9.162;2023-09-07T05:51:48;15.00;95.50
292;DHT22;23311;48.776;9.162;2023-09-07T05:54:16;15.10;95.50
292;DHT22;23311;48.776;9.162;2023-09-07T05:56:44;15.20;95.50
292;DHT22;23311;48.776;9.162;2023-09-07T05:59:13;15.30;95.50
292;DHT22;23311;48.776;9.162;2023-09-07T06:01:42;15.40;95.50
292;DHT22;23311;48.776;9.162;2023-09-07T06:04:16;15.50;95.50
292;DHT22;23311;48.776;9.162;2023-09-07T06:06:45;15.60;95.50
292;DHT22;23311;48.776;9.162;2023-09-07T06:09:13;15.70;95.50
292;DHT22;23311;48.776;9.162;2023-09-07T06:11:41;15.80;95.50
292;DHT22;23311;48.776;9.162;2023-09-07T06:14:09;15.90;95.50
292;DHT22;23311;48.776;9.162;2023-09-07T06:16:39;16.10;95.50
292;DHT22;23311;48.776;9.162;2023-09-07T06:19:08;16.20;95.50
292;DHT22;23311;48.776;9.162;2023-09-07T06:21:36;16.30;95.50
292;DHT22;23311;48.776;9.162;2023-09-07T06:24:05;16.30;95.50
292;DHT22;23311;48.776;9.162;2023-09-07T06:26:33;16.40;95.50
292;DHT22;23311;48.776;9.162;2023-09-07T06:29:02;16.50;95.50
292;DHT22;23311;48.776;9.162;2023-09-07T06:31:30;16.70;95.50
292;DHT22;23311;48.776;9.162;2023-09-07T06:33:59;16.70;95.50
292;DHT22;23311;48.776;9.162;2023-09-07T06:36:29;16.90;95.50
292;DHT22;23311;48.776;9.162;2023-09-07T06:39:11;16.90;95.50
292;DHT22;23311;48.776;9.162;2023-09-07T06:41:39;17.00;95.50
292;DHT22;23311;48.776;9.162;2023-09-07T06:44:08;17.20;95.50
292;DHT22;23311;48.776;9.162;2023-09-07T06:46:37;17.30;95.50
292;DHT22;23311;48.776;9.162;2023-09-07T06:49:06;17.40;95.50
292;DHT22;23311;48.776;9.162;2023-09-07T06:51:34;17.50;95.50
292;DHT22;23311;48.776;9.162;2023-09-07T06:54:03;17.70;95.50
292;DHT22;23311;48.776;9.162;2023-09-07T06:56:31;17.80;95.50
292;DHT22;23311;48.776;9.162;2023-09-07T06:59:01;18.00;95.50
292;DHT22;23311;48.776;9.162;2023-09-07T07:01:29;18.10;95.50
292;DHT22;23311;48.776;9.162;2023-09-07T07:03:57;18.30;95.50
292;DHT22;23311;48.776;9.162;2023-09-07T07:06:28;18.40;95.50
292;DHT22;23311;48.776;9.162;2023-09-07T07:08:56;18.60;95.50
292;DHT22;23311;48.776;9.162;2023-09-07T07:11:24;19.10;95.50
292;DHT22;23311;48.776;9.162;2023-09-07T07:13:52;19.70;95.50
292;DHT22;23311;48.776;9.162;2023-09-07T07:16:20;20.20;95.50
292;DHT22;23311;48.776;9.162;2023-09-07T07:18:49;21.00;95.50
292;DHT22;23311;48.776;9.162;2023-09-07T07:21:17;21.70;95.50
292;DHT22;23311;48.776;9.162;2023-09-07T07:23:46;23.00;95.50
292;DHT22;23311;48.776;9.162;2023-09-07T07:26:14;24.30;93.50
292;DHT22;23311;48.776;9.162;2023-09-07T07:28:43;26.10;88.70
292;DHT22;23311;48.776;9.162;2023-09-07T07:31:20;26.50;85.70
292;DHT22;23311;48.776;9.162;2023-09-07T07:33:48;26.90;84.50
292;DHT22;23311;48.776;9.162;2023-09-07T07:36:16;27.90;82.80
292;DHT22;23311;48.776;9.162;2023-09-07T07:38:46;28.00;81.50
292;DHT22;23311;48.776;9.162;2023-09-07T07:41:14;28.50;80.20
292;DHT22;23311;48.776;9.162;2023-09-07T07:43:42;28.00;80.00
292;DHT22;23311;48.776;9.162;2023-09-07T07:46:10;28.00;81.00
292;DHT22;23311;48.776;9.162;2023-09-07T07:48:42;28.60;79.60
292;DHT22;23311;48.776;9.162;2023-09-07T07:51:10;28.60;79.20
292;DHT22;23311;48.776;9.162;2023-09-07T07:53:38;28.40;79.40
292;DHT22;23311;48.776;9.162;2023-09-07T07:56:15;27.70;81.00
292;DHT22;23311;48.776;9.162;2023-09-07T07:58:44;28.10;80.90
292;DHT22;23311;48.776;9.162;2023-09-07T08:01:16;29.50;77.70
292;DHT22;23311;48.776;9.162;2023-09-07T08:03:45;29.50;77.30
292;DHT22;23311;48.776;9.162;2023-09-07T08:06:13;29.90;75.90
292;DHT22;23311;48.776;9.162;2023-09-07T08:08:41;30.20;74.90
292;DHT22;23311;48.776;9.162;2023-09-07T08:11:10;30.40;74.70
292;DHT22;23311;48.776;9.162;2023-09-07T08:13:39;30.00;75.10
292;DHT22;23311;48.776;9.162;2023-09-07T08:16:08;30.60;74.30
292;DHT22;23311;48.776;9.162;2023-09-07T08:18:40;30.50;74.50
292;DHT22;23311;48.776;9.162;2023-09-07T08:21:08;30.30;74.50
292;DHT22;23311;48.776;9.162;2023-09-07T08:23:36;30.20;74.20
292;DHT22;23311;48.776;9.162;2023-09-07T08:26:04;29.90;75.10
292;DHT22;23311;48.776;9.162;2023-09-07T08:28:35;30.60;73.90
292;DHT22;23311;48.776;9.162;2023-09-07T08:31:05;31.00;72.70
292;DHT22;23311;48.776;9.162;2023-09-07T08:33:33;30.50;73.60
292;DHT22;23311;48.776;9.162;2023-09-07T08:36:07;30.30;74.10
292;DHT22;23311;48.776;9.162;2023-09-07T08:38:36;30.30;73.80
292;DHT22;23311;48.776;9.162;2023-09-07T08:41:05;30.20;74.50
292;DHT22;23311;48.776;9.162;2023-09-07T08:43:39;30.50;73.20
292;DHT22;23311;48.776;9.162;2023-09-07T08:46:17;30.40;74.00
292;DHT22;23311;48.776;9.162;2023-09-07T08:48:47;30.60;73.40
292;DHT22;23311;48.776;9.162;2023-09-07T08:51:18;30.70;73.80
292;DHT22;23311;48.776;9.162;2023-09-07T08:53:46;31.30;72.30
292;DHT22;23311;48.776;9.162;2023-09-07T08:56:17;31.70;71.40
292;DHT22;23311;48.776;9.162;2023-09-07T08:58:46;31.60;71.30
292;DHT22;23311;48.776;9.162;2023-09-07T09:01:18;30.20;73.80
292;DHT22;23311;48.776;9.162;2023-09-07T09:03:48;30.00;74.50
292;DHT22;23311;48.776;9.162;2023-09-07T09:06:19;30.10;74.60
292;DHT22;23311;48.776;9.162;2023-09-07T09:08:49;30.80;73.10
292;DHT22;23311;48.776;9.162;2023-09-07T09:11:20;30.60;73.80
292;DHT22;23311;48.776;9.162;2023-09-07T09:13:49;30.90;73.20
292;DHT22;23311;48.776;9.162;2023-09-07T09:16:19;30.40;74.50
292;DHT22;23311;48.776;9.162;2023-09-07T09:18:48;31.50;72.20
292;DHT22;23311;48.776;9.162;2023-09-07T09:21:19;31.40;72.10
292;DHT22;23311;48.776;9.162;2023-09-07T09:23:49;32.00;71.30
292;DHT22;23311;48.776;9.162;2023-09-07T09:26:17;32.00;71.40
292;DHT22;23311;48.776;9.162;2023-09-07T09:28:46;32.10;70.90
292;DHT22;23311;48.776;9.162;2023-09-07T09:31:15;32.10;70.80
292;DHT22;23311;48.776;9.162;2023-09-07T09:33:49;32.10;70.90
292;DHT22;23311;48.776;9.162;2023-09-07T09:36:18;32.10;70.90
292;DHT22;23311;48.776;9.162;2023-09-07T09:38:48;31.70;71.70
292;DHT22;23311;48.776;9.162;2023-09-07T09:41:17;32.10;71.30
292;DHT22;23311;48.776;9.162;2023-09-07T09:43:46;32.40;70.60
292;DHT22;23311;48.776;9.162;2023-09-07T09:46:16;31.60;71.30
292;DHT22;23311;48.776;9.162;2023-09-07T09:48:47;31.40;72.80
292;DHT22;23311;48.776;9.162;2023-09-07T09:51:16;32.20;71.20
292;DHT22;23311;48.776;9.162;2023-09-07T09:53:46;32.10;71.20
292;DHT22;23311;48.776;9.162;2023-09-07T09:56:16;32.30;70.90
292;DHT22;23311;48.776;9.162;2023-09-07T09:58:45;32.10;71.50
292;DHT22;23311;48.776;9.162;2023-09-07T10:01:13;32.70;70.30
292;DHT22;23311;48.776;9.162;2023-09-07T10:03:46;32.40;70.90
292;DHT22;23311;48.776;9.162;2023-09-07T10:06:19;31.50;72.20
292;DHT22;23311;48.776;9.162;2023-09-07T10:08:59;32.00;71.80
292;DHT22;23311;48.776;9.162;2023-09-07T10:11:29;31.90;71.30
292;DHT22;23311;48.776;9.162;2023-09-07T10:13:58;31.70;72.40
292;DHT22;23311;48.776;9.162;2023-09-07T10:16:27;32.30;71.10
292;DHT22;23311;48.776;9.162;2023-09-07T10:18:57;31.30;72.40
292;DHT22;23311;48.776;9.162;2023-09-07T10:21:25;31.50;73.10
292;DHT22;23311;48.776;9.162;2023-09-07T10:23:54;32.40;71.30
292;DHT22;23311;48.776;9.162;2023-09-07T10:26:22;32.20;72.00
292;DHT22;23311;48.776;9.162;2023-09-07T10:28:59;32.50;71.40
292;DHT22;23311;48.776;9.162;2023-09-07T10:31:27;32.50;71.30
292;DHT22;23311;48.776;9.162;2023-09-07T10:34:18;32.60;71.00
292;DHT22;23311;48.776;9.162;2023-09-07T10:36:47;32.50;71.00
292;DHT22;23311;48.776;9.162;2023-09-07T10:39:18;32.30;71.50
292;DHT22;23311;48.776;9.162;2023-09-07T10:41:46;31.60;72.80
292;DHT22;23311;48.776;9.162;2023-09-07T10:44:14;31.70;72.60
292;DHT22;23311;48.776;9.162;2023-09-07T10:46:43;31.70;73.00
292;DHT22;23311;48.776;9.162;2023-09-07T10:49:12;31.10;73.80
292;DHT22;23311;48.776;9.162;2023-09-07T10:51:44;30.40;75.50
292;DHT22;23311;48.776;9.162;2023-09-07T10:54:16;30.50;75.50
292;DHT22;23311;48.776;9.162;2023-09-07T10:56:45;30.70;75.20
292;DHT22;23311;48.776;9.162;2023-09-07T10:59:14;30.40;76.20
292;DHT22;23311;48.776;9.162;2023-09-07T11:01:44;30.80;75.20
292;DHT22;23311;48.776;9.162;2023-09-07T11:04:12;30.40;75.90
292;DHT22;23311;48.776;9.162;2023-09-07T11:06:43;29.90;76.80
292;DHT22;23311;48.776;9.162;2023-09-07T11:09:11;29.60;78.00
292;DHT22;23311;48.776;9.162;2023-09-07T11:11:39;29.70;77.60
292;DHT22;23311;48.776;9.162;2023-09-07T11:14:08;29.20;78.70
292;DHT22;23311;48.776;9.162;2023-09-07T11:16:36;28.80;79.40
292;DHT22;23311;48.776;9.162;2023-09-07T11:19:04;28.80;80.00
292;DHT22;23311;48.776;9.162;2023-09-07T11:21:34;28.90;80.10
292;DHT22;23311;48.776;9.162;2023-09-07T11:24:05;29.20;79.40
292;DHT22;23311;48.776;9.162;2023-09-07T11:26:42;29.60;78.60
292;DHT22;23311;48.776;9.162;2023-09-07T11:29:13;29.30;78.90
292;DHT22;23311;48.776;9.162;2023-09-07T11:31:43;29.20;79.20
292;DHT22;23311;48.776;9.162;2023-09-07T11:34:11;29.40;78.90
292;DHT22;23311;48.776;9.162;2023-09-07T11:36:40;29.90;78.10
292;DHT22;23311;48.776;9.162;2023-09-07T11:39:10;30.40;77.10
292;DHT22;23311;48.776;9.162;2023-09-07T11:41:41;31.00;75.90
292;DHT22;23311;48.776;9.162;2023-09-07T11:44:10;31.30;74.70
292;DHT22;23311;48.776;9.162;2023-09-07T11:46:39;31.30;75.10
292;DHT22;23311;48.776;9.162;2023-09-07T11:49:08;32.00;73.60
292;DHT22;23311;48.776;9.162;2023-09-07T11:51:37;32.60;72.40
292;DHT22;23311;48.776;9.162;2023-09-07T11:54:05;32.60;72.00
292;DHT22;23311;48.776;9.162;2023-09-07T11:56:35;32.30;72.20
292;DHT22;23311;48.776;9.162;2023-09-07T11:59:06;32.10;72.80
292;DHT22;23311;48.776;9.162;2023-09-07T12:01:35;32.10;73.00
292;DHT22;23311;48.776;9.162;2023-09-07T12:04:06;32.10;73.00
292;DHT22;23311;48.776;9.162;2023-09-07T12:06:35;32.50;72.20
292;DHT22;23311;48.776;9.162;2023-09-07T12:09:05;33.20;71.10
292;DHT22;23311;48.776;9.162;2023-09-07T12:11:35;33.50;70.30
292;DHT22;23311;48.776;9.162;2023-09-07T12:14:03;33.30;70.90
292;DHT22;23311;48.776;9.162;2023-09-07T12:16:32;32.10;72.90
292;DHT22;23311;48.776;9.162;2023-09-07T12:19:00;32.40;72.20
292;DHT22;23311;48.776;9.162;2023-09-07T12:21:29;32.40;72.10
292;DHT22;23311;48.776;9.162;2023-09-07T12:23:57;32.70;71.90
292;DHT22;23311;48.776;9.162;2023-09-07T12:26:25;32.90;71.10
292;DHT22;23311;48.776;9.162;2023-09-07T12:28:54;32.90;71.30
292;DHT22;23311;48.776;9.162;2023-09-07T12:31:23;33.30;70.90
292;DHT22;23311;48.776;9.162;2023-09-07T12:33:51;33.20;70.00
292;DHT22;23311;48.776;9.162;2023-09-07T12:36:19;32.80;71.20
292;DHT22;23311;48.776;9.162;2023-09-07T12:38:48;32.80;71.20
292;DHT22;23311;48.776;9.162;2023-09-07T12:41:17;32.80;71.10
292;DHT22;23311;48.776;9.162;2023-09-07T12:43:45;33.00;71.00
292;DHT22;23311;48.776;9.162;2023-09-07T12:46:14;33.00;70.70
292;DHT22;23311;48.776;9.162;2023-09-07T12:48:42;33.40;69.60
292;DHT22;23311;48.776;9.162;2023-09-07T12:51:11;33.30;69.20
292;DHT22;23311;48.776;9.162;2023-09-07T12:53:39;33.10;70.00
292;DHT22;23311;48.776;9.162;2023-09-07T12:56:07;33.30;69.50
292;DHT22;23311;48.776;9.162;2023-09-07T12:58:36;33.70;68.70
292;DHT22;23311;48.776;9.162;2023-09-07T13:01:04;33.50;68.40
292;DHT22;23311;48.776;9.162;2023-09-07T13:03:34;33.10;69.10
292;DHT22;23311;48.776;9.162;2023-09-07T13:06:03;33.20;69.40
292;DHT22;23311;48.776;9.162;2023-09-07T13:08:31;33.20;69.10
292;DHT22;23311;48.776;9.162;2023-09-07T13:11:02;33.20;68.80
292;DHT22;23311;48.776;9.162;2023-09-07T13:13:30;33.60;68.20
292;DHT22;23311;48.776;9.162;2023-09-07T13:15:59;33.40;68.60
292;DHT22;23311;48.776;9.162;2023-09-07T13:18:28;33.50;68.20
292;DHT22;23311;48.776;9.162;2023-09-07T13:20:58;33.80;68.20
292;DHT22;23311;48.776;9.162;2023-09-07T13:23:28;33.90;68.30
292;DHT22;23311;48.776;9.162;2023-09-07T13:25:57;33.60;67.90
292;DHT22;23311;48.776;9.162;2023-09-07T13:28:27;33.60;68.30
292;DHT22;23311;48.776;9.162;2023-09-07T13:30:59;34.10;67.30
292;DHT22;23311;48.776;9.162;2023-09-07T13:33:27;33.70;67.30
292;DHT22;23311;48.776;9.162;2023-09-07T13:35:58;33.80;67.20
292;DHT22;23311;48.776;9.162;2023-09-07T13:38:27;33.80;67.60
292;DHT22;23311;48.776;9.162;2023-09-07T13:40:55;33.80;66.60
292;DHT22;23311;48.776;9.162;2023-09-07T13:43:23;33.90;67.20
292;DHT22;23311;48.776;9.162;2023-09-07T13:45:51;34.00;67.60
292;DHT22;23311;48.776;9.162;2023-09-07T13:48:19;33.80;67.40
292;DHT22;23311;48.776;9.162;2023-09-07T13:50:47;33.60;68.10
292;DHT22;23311;48.776;9.162;2023-09-07T13:53:18;33.90;67.60
292;DHT22;23311;48.776;9.162;2023-09-07T13:55:46;33.90;67.10
292;DHT22;23311;48.776;9.162;2023-09-07T13:58:14;33.80;67.40
292;DHT22;23311;48.776;9.162;2023-09-07T14:00:42;34.00;67.20
292;DHT22;23311;48.776;9.162;2023-09-07T14:03:11;34.10;66.80
292;DHT22;23311;48.776;9.162;2023-09-07T14:05:39;34.20;66.70
292;DHT22;23311;48.776;9.162;2023-09-07T14:08:07;34.40;66.40
292;DHT22;23311;48.776;9.162;2023-09-07T14:10:37;34.10;66.60
292;DHT22;23311;48.776;9.162;2023-09-07T14:13:05;33.40;68.10
292;DHT22;23311;48.776;9.162;2023-09-07T14:15:33;33.20;68.20
292;DHT22;23311;48.776;9.162;2023-09-07T14:18:01;33.10;68.60
292;DHT22;23311;48.776;9.162;2023-09-07T14:20:29;33.40;68.20
292;DHT22;23311;48.776;9.162;2023-09-07T14:22:57;33.50;67.80
292;DHT22;23311;48.776;9.162;2023-09-07T14:25:27;32.80;68.60
292;DHT22;23311;48.776;9.162;2023-09-07T14:27:57;32.70;69.30
292;DHT22;23311;48.776;9.162;2023-09-07T14:30:25;32.50;69.40
292;DHT22;23311;48.776;9.162;2023-09-07T14:32:53;32.60;69.10
292;DHT22;23311;48.776;9.162;2023-09-07T14:35:21;32.90;69.00
292;DHT22;23311;48.776;9.162;2023-09-07T14:37:49;33.00;68.50
292;DHT22;23311;48.776;9.162;2023-09-07T14:40:19;33.00;68.60
292;DHT22;23311;48.776;9.162;2023-09-07T14:42:49;33.00;68.40
292;DHT22;23311;48.776;9.162;2023-09-07T14:45:18;33.10;68.40
292;DHT22;23311;48.776;9.162;2023-09-07T14:47:46;33.40;68.20
292;DHT22;23311;48.776;9.162;2023-09-07T14:50:14;33.20;68.20
292;DHT22;23311;48.776;9.162;2023-09-07T14:52:43;33.30;68.30
292;DHT22;23311;48.776;9.162;2023-09-07T14:55:14;33.10;68.40
292;DHT22;23311;48.776;9.162;2023-09-07T14:57:42;33.20;68.40
292;DHT22;23311;48.776;9.162;2023-09-07T15:00:11;32.90;68.30
292;DHT22;23311;48.776;9.162;2023-09-07T15:02:41;32.30;69.30
292;DHT22;23311;48.776;9.162;2023-09-07T15:05:09;32.10;69.70
292;DHT22;23311;48.776;9.162;2023-09-07T15:07:37;32.10;69.90
292;DHT22;23311;48.776;9.162;2023-09-07T15:10:06;31.90;70.10
292;DHT22;23311;48.776;9.162;2023-09-07T15:12:35;32.00;70.30
292;DHT22;23311;48.776;9.162;2023-09-07T15:15:04;31.90;70.70
292;DHT22;23311;48.776;9.162;2023-09-07T15:17:36;31.50;71.40
292;DHT22;23311;48.776;9.162;2023-09-07T15:20:07;31.10;72.00
292;DHT22;23311;48.776;9.162;2023-09-07T15:22:36;31.00;72.20
292;DHT22;23311;48.776;9.162;2023-09-07T15:25:04;30.50;72.60
292;DHT22;23311;48.776;9.162;2023-09-07T15:27:33;30.20;73.70
292;DHT22;23311;48.776;9.162;2023-09-07T15:30:01;30.10;74.30
292;DHT22;23311;48.776;9.162;2023-09-07T15:32:30;30.00;74.90
292;DHT22;23311;48.776;9.162;2023-09-07T15:34:58;29.90;75.40
292;DHT22;23311;48.776;9.162;2023-09-07T15:37:28;29.90;75.60
292;DHT22;23311;48.776;9.162;2023-09-07T15:39:56;29.90;75.70
292;DHT22;23311;48.776;9.162;2023-09-07T15:42:25;29.80;75.60
292;DHT22;23311;48.776;9.162;2023-09-07T15:44:53;29.90;75.10
292;DHT22;23311;48.776;9.162;2023-09-07T15:47:21;30.00;74.50
292;DHT22;23311;48.776;9.162;2023-09-07T15:49:51;30.30;74.30
292;DHT22;23311;48.776;9.162;2023-09-07T15:52:20;30.70;73.30
292;DHT22;23311;48.776;9.162;2023-09-07T15:54:49;31.00;72.70
292;DHT22;23311;48.776;9.162;2023-09-07T15:57:18;31.20;72.50
292;DHT22;23311;48.776;9.162;2023-09-07T15:59:46;31.40;71.70
292;DHT22;23311;48.776;9.162;2023-09-07T16:02:14;31.40;71.70
292;DHT22;23311;48.776;9.162;2023-09-07T16:04:42;31.30;71.60
292;DHT22;23311;48.776;9.162;2023-09-07T16:07:11;31.20;71.70
292;DHT22;23311;48.776;9.162;2023-09-07T16:09:39;31.20;71.80
292;DHT22;23311;48.776;9.162;2023-09-07T16:12:08;31.10;72.00
292;DHT22;23311;48.776;9.162;2023-09-07T16:14:36;31.20;71.90